createdAt,value
2017-08-09T00:01:38.958Z,9.10
2017-08-09T00:04:05.457Z,8.83
2017-08-09T00:06:32.648Z,10.00
2017-08-09T00:08:58.948Z,9.70
2017-08-09T00:11:25.436Z,9.10
2017-08-09T00:13:52.488Z,9.40
2017-08-09T00:16:19.486Z,9.67
2017-08-09T00:18:45.963Z,9.27
2017-08-09T00:21:12.902Z,9.27
2017-08-09T00:23:39.977Z,9.57
2017-08-09T00:26:06.368Z,8.67
2017-08-09T00:28:32.988Z,9.47
2017-08-09T00:30:59.394Z,9.53
2017-08-09T00:33:25.947Z,10.40
2017-08-09T00:35:52.268Z,10.30
2017-08-09T00:38:18.648Z,10.00
2017-08-09T00:40:45.027Z,10.60
2017-08-09T00:43:11.396Z,9.87
2017-08-09T00:45:38.174Z,10.03
2017-08-09T00:48:06.028Z,10.53
2017-08-09T00:50:32.286Z,9.77
2017-08-09T00:52:58.548Z,11.30
2017-08-09T00:55:25.299Z,10.80
2017-08-09T00:57:51.580Z,9.87
2017-08-09T01:00:17.884Z,10.10
2017-08-09T01:02:45.023Z,9.87
2017-08-09T01:05:11.269Z,10.30
2017-08-09T01:07:37.545Z,10.90
2017-08-09T01:10:03.938Z,10.90
2017-08-09T01:12:30.924Z,10.40
2017-08-09T01:14:57.184Z,8.70
2017-08-09T01:17:23.584Z,9.83
2017-08-09T01:19:49.831Z,10.10
2017-08-09T01:22:16.122Z,10.10
2017-08-09T01:24:42.561Z,9.57
2017-08-09T01:27:08.801Z,10.13
2017-08-09T01:29:35.051Z,10.00
2017-08-09T01:32:01.453Z,9.93
2017-08-09T01:34:27.692Z,10.30
2017-08-09T01:36:53.993Z,10.53
2017-08-09T01:39:21.251Z,12.93
2017-08-09T01:41:47.560Z,13.73
2017-08-09T01:44:13.857Z,15.60
2017-08-09T01:46:40.637Z,13.93
2017-08-09T01:49:06.917Z,14.67
2017-08-09T01:51:33.191Z,14.83
2017-08-09T01:53:59.736Z,13.40
2017-08-09T01:56:25.995Z,12.40
2017-08-09T01:58:52.607Z,13.80
2017-08-09T02:01:18.993Z,15.47
2017-08-09T02:03:45.265Z,18.40
2017-08-09T02:06:11.541Z,18.90
2017-08-09T02:08:37.927Z,19.17
2017-08-09T02:11:04.228Z,17.67
2017-08-09T02:13:30.525Z,13.70
2017-08-09T02:15:57.056Z,12.57
2017-08-09T02:18:23.318Z,12.20
2017-08-09T02:20:49.736Z,10.90
2017-08-09T02:23:16.569Z,10.77
2017-08-09T02:25:42.857Z,11.07
2017-08-09T02:28:09.837Z,9.87
2017-08-09T02:30:36.657Z,9.60
2017-08-09T02:33:03.773Z,9.20
2017-08-09T02:35:30.776Z,10.03
2017-08-09T02:37:57.148Z,9.17
2017-08-09T02:40:23.538Z,9.40
2017-08-09T02:42:49.850Z,9.63
2017-08-09T02:45:16.628Z,10.40
2017-08-09T02:47:44.067Z,10.57
2017-08-09T02:50:11.177Z,9.50
2017-08-09T02:52:38.406Z,9.80
2017-08-09T02:55:04.669Z,10.60
2017-08-09T02:57:30.935Z,10.90
2017-08-09T02:59:57.448Z,10.30
2017-08-09T03:02:23.725Z,10.17
2017-08-09T03:04:49.976Z,10.70
2017-08-09T03:07:16.519Z,10.53
2017-08-09T03:09:43.054Z,9.43
2017-08-09T03:12:09.316Z,11.30
2017-08-09T03:14:35.982Z,11.83
2017-08-09T03:17:03.700Z,10.07
2017-08-09T03:19:30.010Z,10.10
2017-08-09T03:21:56.552Z,9.90
2017-08-09T03:24:22.924Z,9.60
2017-08-09T03:26:49.189Z,10.20
2017-08-09T03:29:15.611Z,11.30
2017-08-09T03:31:41.872Z,9.47
2017-08-09T03:34:08.122Z,9.50
2017-08-09T03:36:34.559Z,9.50
2017-08-09T03:39:00.854Z,11.13
2017-08-09T03:41:28.567Z,9.90
2017-08-09T03:43:55.230Z,9.13
2017-08-09T03:46:21.503Z,9.90
2017-08-09T03:48:48.045Z,9.20
2017-08-09T03:51:14.450Z,9.70
2017-08-09T03:53:41.529Z,10.10
2017-08-09T03:56:07.771Z,9.87
2017-08-09T03:58:34.161Z,9.40
2017-08-09T04:01:01.160Z,10.90
2017-08-09T04:03:27.442Z,10.80
2017-08-09T04:05:53.907Z,10.03
2017-08-09T04:08:20.144Z,10.30
2017-08-09T04:10:46.437Z,10.57
2017-08-09T04:13:13.153Z,11.60
2017-08-09T04:15:39.445Z,11.47
2017-08-09T04:18:05.729Z,11.90
2017-08-09T04:20:32.193Z,12.17
2017-08-09T04:22:58.477Z,11.50
2017-08-09T04:25:25.475Z,12.40
2017-08-09T04:27:51.864Z,12.80
2017-08-09T04:30:18.309Z,12.80
2017-08-09T04:32:44.607Z,13.60
2017-08-09T04:35:11.440Z,13.70
2017-08-09T04:37:37.699Z,13.93
2017-08-09T04:40:04.705Z,13.80
2017-08-09T04:42:32.115Z,13.40
2017-08-09T04:44:58.398Z,14.90
2017-08-09T04:47:24.763Z,14.30
2017-08-09T04:49:52.175Z,14.23
2017-08-09T04:52:18.557Z,15.07
2017-08-09T04:54:44.813Z,14.43
2017-08-09T04:57:11.698Z,14.13
2017-08-09T04:59:37.976Z,13.50
2017-08-09T05:02:04.208Z,14.80
2017-08-09T05:04:30.590Z,14.53
2017-08-09T05:06:56.884Z,14.23
2017-08-09T05:09:23.271Z,14.40
2017-08-09T05:11:49.700Z,14.37
2017-08-09T05:14:16.696Z,13.97
2017-08-09T05:16:42.976Z,13.73
2017-08-09T05:19:09.512Z,12.50
2017-08-09T05:21:35.901Z,12.50
2017-08-09T05:24:02.166Z,12.83
2017-08-09T05:26:29.000Z,12.40
2017-08-09T05:28:55.314Z,12.67
2017-08-09T05:31:21.621Z,13.30
2017-08-09T05:33:47.996Z,11.63
2017-08-09T05:36:14.271Z,12.30
2017-08-09T05:38:40.528Z,11.37
2017-08-09T05:41:06.912Z,11.10
2017-08-09T05:43:33.345Z,10.00
2017-08-09T05:45:59.639Z,10.67
2017-08-09T05:48:26.597Z,10.77
2017-08-09T05:50:54.547Z,11.20
2017-08-09T05:53:20.804Z,10.40
2017-08-09T05:55:47.267Z,9.90
2017-08-09T05:58:13.516Z,9.10
2017-08-09T06:00:39.773Z,9.33
2017-08-09T06:03:06.521Z,9.03
2017-08-09T06:05:32.787Z,9.23
2017-08-09T06:07:59.786Z,9.47
2017-08-09T06:10:26.180Z,8.90
2017-08-09T06:12:52.432Z,8.77
2017-08-09T06:15:18.731Z,8.47
2017-08-09T06:17:45.142Z,8.43
2017-08-09T06:20:12.152Z,8.00
2017-08-09T06:22:38.433Z,8.00
2017-08-09T06:25:05.016Z,7.70
2017-08-09T06:27:31.282Z,7.07
2017-08-09T06:29:57.540Z,7.90
2017-08-09T06:32:24.090Z,7.10
2017-08-09T06:34:50.909Z,7.23
2017-08-09T06:37:17.274Z,7.43
2017-08-09T06:42:21.376Z,7.03
2017-08-09T06:44:47.927Z,7.50
2017-08-09T06:47:15.301Z,7.10
2017-08-09T06:49:41.591Z,6.30
2017-08-09T06:52:08.262Z,6.70
2017-08-09T06:54:34.548Z,6.30
2017-08-09T06:57:01.543Z,6.27
2017-08-09T06:59:27.950Z,5.43
2017-08-09T07:01:54.196Z,6.00
2017-08-09T07:04:20.484Z,6.27
2017-08-09T07:06:47.250Z,5.47
2017-08-09T07:09:13.684Z,6.40
2017-08-09T07:11:39.962Z,5.83
2017-08-09T07:14:06.311Z,8.70
2017-08-09T07:16:32.651Z,5.60
2017-08-09T07:18:59.030Z,6.33
2017-08-09T07:21:25.566Z,6.77
2017-08-09T07:23:52.619Z,6.47
2017-08-09T07:26:18.945Z,6.10
2017-08-09T07:28:46.071Z,5.90
2017-08-09T07:31:12.436Z,5.97
2017-08-09T07:33:38.848Z,5.77
2017-08-09T07:36:05.245Z,5.70
2017-08-09T07:38:31.566Z,6.33
2017-08-09T07:40:57.924Z,5.80
2017-08-09T07:43:24.725Z,5.70
2017-08-09T07:45:51.154Z,5.57
2017-08-09T07:48:17.749Z,5.47
2017-08-09T07:50:44.285Z,5.50
2017-08-09T07:53:12.041Z,6.13
2017-08-09T07:55:38.484Z,6.57
2017-08-09T07:58:05.269Z,6.30
2017-08-09T08:00:31.613Z,7.90
2017-08-09T08:02:57.885Z,7.33
2017-08-09T08:05:26.526Z,6.17
2017-08-09T08:07:53.618Z,5.10
2017-08-09T08:10:19.920Z,4.57
2017-08-09T08:12:46.387Z,4.40
2017-08-09T08:15:12.753Z,3.90
2017-08-09T08:17:39.038Z,7.10
2017-08-09T08:20:05.421Z,6.00
2017-08-09T08:22:31.797Z,4.00
2017-08-09T08:24:58.128Z,4.83
2017-08-09T08:27:24.914Z,5.53
2017-08-09T08:29:51.188Z,4.07
2017-08-09T08:32:18.225Z,4.80
2017-08-09T08:34:44.693Z,4.03
2017-08-09T08:37:12.037Z,3.57
2017-08-09T08:39:39.154Z,10.03
2017-08-09T08:42:06.438Z,3.70
2017-08-09T08:44:32.801Z,4.50
2017-08-09T08:46:59.238Z,5.10
2017-08-09T08:49:26.416Z,5.07
2017-08-09T08:51:52.656Z,4.53
2017-08-09T08:54:19.864Z,4.43
2017-08-09T08:56:46.242Z,4.50
2017-08-09T08:59:12.503Z,5.00
2017-08-09T09:01:38.811Z,4.33
2017-08-09T09:04:05.313Z,4.10
2017-08-09T09:06:31.603Z,4.67
2017-08-09T09:08:57.858Z,4.00
2017-08-09T09:11:24.526Z,4.20
2017-08-09T09:13:50.801Z,3.80
2017-08-09T09:16:17.093Z,3.50
2017-08-09T09:18:43.493Z,4.07
2017-08-09T09:21:09.767Z,3.70
2017-08-09T09:23:36.046Z,4.20
2017-08-09T09:26:02.489Z,4.87
2017-08-09T09:28:28.741Z,3.80
2017-08-09T09:30:55.741Z,4.33
2017-08-09T09:33:22.168Z,4.90
2017-08-09T09:35:48.410Z,3.60
2017-08-09T09:38:15.536Z,3.90
2017-08-09T09:40:41.984Z,11.50
2017-08-09T09:43:08.286Z,4.90
2017-08-09T09:45:34.628Z,6.03
2017-08-09T09:48:01.262Z,4.17
2017-08-09T09:50:27.513Z,5.00
2017-08-09T09:52:54.197Z,3.93
2017-08-09T09:55:21.228Z,5.87
2017-08-09T09:57:47.524Z,4.10
2017-08-09T10:00:14.624Z,4.10
2017-08-09T10:02:41.459Z,4.10
2017-08-09T10:05:07.724Z,5.00
2017-08-09T10:07:33.989Z,3.97
2017-08-09T10:10:00.430Z,4.37
2017-08-09T10:12:26.728Z,5.87
2017-08-09T10:14:53.046Z,4.80
2017-08-09T10:17:19.862Z,4.47
2017-08-09T10:19:46.259Z,4.40
2017-08-09T10:22:12.603Z,4.70
2017-08-09T10:24:39.261Z,5.33
2017-08-09T10:27:06.325Z,3.70
2017-08-09T10:29:32.738Z,3.97
2017-08-09T10:31:59.638Z,4.00
2017-08-09T10:34:25.994Z,3.73
2017-08-09T10:36:52.262Z,4.17
2017-08-09T10:39:18.798Z,3.50
2017-08-09T10:41:46.006Z,5.23
2017-08-09T10:44:12.269Z,5.43
2017-08-09T10:46:38.989Z,3.13
2017-08-09T10:49:05.517Z,6.00
2017-08-09T10:51:32.013Z,5.00
2017-08-09T10:53:58.869Z,3.27
2017-08-09T10:56:25.504Z,4.57
2017-08-09T10:58:51.889Z,4.10
2017-08-09T11:01:18.612Z,4.40
2017-08-09T11:03:44.907Z,6.50
2017-08-09T11:06:11.178Z,3.90
2017-08-09T11:08:37.948Z,3.60
2017-08-09T11:11:04.177Z,5.30
2017-08-09T11:13:30.442Z,6.20
2017-08-09T11:15:57.081Z,5.70
2017-08-09T11:18:23.387Z,4.83
2017-08-09T11:20:49.659Z,4.40
2017-08-09T11:23:16.949Z,4.80
2017-08-09T11:25:44.150Z,6.93
2017-08-09T11:28:11.185Z,3.80
2017-08-09T11:30:37.722Z,3.00
2017-08-09T11:33:03.964Z,3.37
2017-08-09T11:35:30.239Z,4.00
2017-08-09T11:37:56.642Z,3.70
2017-08-09T11:40:23.048Z,4.53
2017-08-09T11:42:50.288Z,3.10
2017-08-09T11:45:16.666Z,3.50
2017-08-09T11:47:43.004Z,3.10
2017-08-09T11:50:10.179Z,4.40
2017-08-09T11:52:36.558Z,4.83
2017-08-09T11:55:03.005Z,3.30
2017-08-09T11:57:29.742Z,5.00
2017-08-09T11:59:56.251Z,3.83
2017-08-09T12:02:22.666Z,3.83
2017-08-09T12:04:49.071Z,3.90
2017-08-09T12:07:15.433Z,3.30
2017-08-09T12:09:41.799Z,3.20
2017-08-09T12:12:08.161Z,3.60
2017-08-09T12:14:34.700Z,4.00
2017-08-09T12:17:01.140Z,3.10
2017-08-09T12:19:27.419Z,6.20
2017-08-09T12:21:54.342Z,3.47
2017-08-09T12:24:20.582Z,3.63
2017-08-09T12:26:46.879Z,3.43
2017-08-09T12:29:13.254Z,3.10
2017-08-09T12:31:39.562Z,3.37
2017-08-09T12:34:05.822Z,2.70
2017-08-09T12:36:32.254Z,4.80
2017-08-09T12:38:58.641Z,2.60
2017-08-09T12:41:24.898Z,2.60
2017-08-09T12:43:51.297Z,3.47
2017-08-09T12:46:17.631Z,3.90
2017-08-09T12:48:44.820Z,3.07
2017-08-09T12:51:13.728Z,2.57
2017-08-09T12:53:40.034Z,3.27
2017-08-09T12:56:06.336Z,4.30
2017-08-09T12:58:33.018Z,3.57
2017-08-09T13:00:59.423Z,2.80
2017-08-09T13:03:25.845Z,3.07
2017-08-09T13:05:52.302Z,2.80
2017-08-09T13:08:19.360Z,3.13
2017-08-09T13:10:46.833Z,2.63
2017-08-09T13:13:14.387Z,2.90
2017-08-09T13:15:41.628Z,3.23
2017-08-09T13:18:07.947Z,2.60
2017-08-09T13:20:41.500Z,2.83
2017-08-09T13:23:07.841Z,5.37
2017-08-09T13:25:34.143Z,4.10
2017-08-09T13:28:01.334Z,2.70
2017-08-09T13:30:27.725Z,2.63
2017-08-09T13:32:54.053Z,3.40
2017-08-09T13:35:24.275Z,2.30
2017-08-09T13:37:50.690Z,3.40
2017-08-09T13:40:16.976Z,3.40
2017-08-09T13:42:43.505Z,2.53
2017-08-09T13:45:09.911Z,3.10
2017-08-09T13:47:36.193Z,2.50
2017-08-09T13:50:02.633Z,4.00
2017-08-09T13:52:29.062Z,3.30
2017-08-09T13:54:55.468Z,4.20
2017-08-09T13:57:22.034Z,4.00
2017-08-09T13:59:48.669Z,3.63
2017-08-09T14:02:15.839Z,4.10
2017-08-09T14:04:44.526Z,3.63
2017-08-09T14:07:12.644Z,3.87
2017-08-09T14:09:38.945Z,4.10
2017-08-09T14:12:05.416Z,3.80
2017-08-09T14:14:31.779Z,3.57
2017-08-09T14:16:58.076Z,3.73
2017-08-09T14:19:25.408Z,4.10
2017-08-09T14:21:51.696Z,3.70
2017-08-09T14:24:18.017Z,3.17
2017-08-09T14:26:44.823Z,3.43
2017-08-09T14:29:11.876Z,3.73
2017-08-09T14:31:38.138Z,3.20
2017-08-09T14:34:04.567Z,3.90
2017-08-09T14:36:31.017Z,5.17
2017-08-09T14:38:58.053Z,3.17
2017-08-09T14:41:24.664Z,3.60
2017-08-09T14:43:51.079Z,3.00
2017-08-09T14:46:17.542Z,4.03
2017-08-09T14:48:44.183Z,2.97
2017-08-09T14:51:10.517Z,2.53
2017-08-09T14:53:36.969Z,3.37
2017-08-09T14:56:03.537Z,2.43
2017-08-09T14:58:29.943Z,3.60
2017-08-09T15:00:56.570Z,3.20
2017-08-09T15:03:23.114Z,3.13
2017-08-09T15:05:49.555Z,6.10
2017-08-09T15:08:16.573Z,3.77
2017-08-09T15:10:43.114Z,3.73
2017-08-09T15:13:09.416Z,3.33
2017-08-09T15:15:35.754Z,2.60
2017-08-09T15:18:02.328Z,2.40
2017-08-09T15:20:28.619Z,2.47
2017-08-09T15:22:55.005Z,2.30
2017-08-09T15:25:21.437Z,2.60
2017-08-09T15:27:47.705Z,2.60
2017-08-09T15:30:14.130Z,2.00
2017-08-09T15:32:40.696Z,1.93
2017-08-09T15:35:07.341Z,2.20
2017-08-09T15:37:33.698Z,2.33
2017-08-09T15:40:00.557Z,2.43
2017-08-09T15:42:26.949Z,2.03
2017-08-09T15:44:53.353Z,2.10
2017-08-09T15:47:20.203Z,2.40
2017-08-09T15:49:46.496Z,1.80
2017-08-09T15:52:12.853Z,3.40
2017-08-09T15:54:39.404Z,2.20
2017-08-09T15:57:05.770Z,3.27
2017-08-09T15:59:32.194Z,8.20
2017-08-09T16:01:59.096Z,5.57
2017-08-09T16:04:25.504Z,4.80
2017-08-09T16:06:52.528Z,2.77
2017-08-09T16:09:19.785Z,3.70
2017-08-09T16:11:46.109Z,2.40
2017-08-09T16:14:12.438Z,3.70
2017-08-09T16:16:39.050Z,3.00
2017-08-09T16:19:05.448Z,4.07
2017-08-09T16:21:31.825Z,2.50
2017-08-09T16:23:58.294Z,2.93
2017-08-09T16:26:24.546Z,2.87
2017-08-09T16:28:51.099Z,3.07
2017-08-09T16:31:17.568Z,2.10
2017-08-09T16:33:43.813Z,8.10
2017-08-09T16:36:10.052Z,33.50
2017-08-09T16:38:36.601Z,8.17
2017-08-09T16:41:03.649Z,9.53
2017-08-09T16:43:30.810Z,6.13
2017-08-09T16:45:57.301Z,13.80
2017-08-09T16:48:23.607Z,7.90
2017-08-09T16:50:49.850Z,13.50
2017-08-09T16:53:16.227Z,12.63
2017-08-09T16:55:43.317Z,12.53
2017-08-09T16:58:10.369Z,9.90
2017-08-09T17:00:36.773Z,9.37
2017-08-09T17:03:03.274Z,3.53
2017-08-09T17:05:30.276Z,6.60
2017-08-09T17:07:56.683Z,4.00
2017-08-09T17:10:22.936Z,4.40
2017-08-09T17:12:49.547Z,3.63
2017-08-09T17:15:15.998Z,21.00
2017-08-09T17:17:42.281Z,12.73
2017-08-09T17:20:09.448Z,4.57
2017-08-09T17:22:35.847Z,10.73
2017-08-09T17:25:02.842Z,6.30
2017-08-09T17:27:29.117Z,5.30
2017-08-09T17:29:55.514Z,6.00
2017-08-09T17:32:21.767Z,5.10
2017-08-09T17:34:48.046Z,9.50
2017-08-09T17:37:15.581Z,14.00
2017-08-09T17:39:41.816Z,22.47
2017-08-09T17:42:08.926Z,9.27
2017-08-09T17:44:35.337Z,9.40
2017-08-09T17:47:01.661Z,6.27
2017-08-09T17:49:28.065Z,9.20
2017-08-09T17:51:54.453Z,5.13
2017-08-09T17:54:20.753Z,4.87
2017-08-09T17:56:48.480Z,2.60
2017-08-09T17:59:14.863Z,9.30
2017-08-09T18:01:41.118Z,19.90
2017-08-09T18:04:07.613Z,7.97
2017-08-09T18:06:34.171Z,6.10
2017-08-09T18:09:00.472Z,8.33
2017-08-09T18:11:26.720Z,5.60
2017-08-09T18:13:53.144Z,6.10
2017-08-09T18:16:19.393Z,3.60
2017-08-09T18:18:45.647Z,3.23
2017-08-09T18:21:12.015Z,4.97
2017-08-09T18:23:39.018Z,4.97
2017-08-09T18:26:05.252Z,5.83
2017-08-09T18:28:31.951Z,23.57
2017-08-09T18:30:58.262Z,29.73
2017-08-09T18:33:24.625Z,11.80
2017-08-09T18:35:51.017Z,9.37
2017-08-09T18:38:17.275Z,17.60
2017-08-09T18:40:43.581Z,44.63
2017-08-09T18:43:10.851Z,20.93
2017-08-09T18:45:37.136Z,27.00
2017-08-09T18:48:03.533Z,13.47
2017-08-09T18:50:29.922Z,9.83
2017-08-09T18:52:56.928Z,11.07
2017-08-09T18:55:23.288Z,8.03
2017-08-09T18:57:49.824Z,8.40
2017-08-09T19:00:16.072Z,4.70
2017-08-09T19:02:43.107Z,6.43
2017-08-09T19:05:10.509Z,5.77
2017-08-09T19:07:36.798Z,5.83
2017-08-09T19:10:03.965Z,6.00
2017-08-09T19:12:30.396Z,5.70
2017-08-09T19:14:56.875Z,7.63
2017-08-09T19:17:23.250Z,10.03
2017-08-09T19:19:49.809Z,5.50
2017-08-09T19:22:16.126Z,5.73
2017-08-09T19:24:42.413Z,5.60
2017-08-09T19:27:08.847Z,6.30
2017-08-09T19:29:35.136Z,5.30
2017-08-09T19:32:01.468Z,6.60
2017-08-09T19:34:27.950Z,8.20
2017-08-09T19:36:55.033Z,4.97
2017-08-09T19:39:21.343Z,8.10
2017-08-09T19:41:47.769Z,5.50
2017-08-09T19:44:14.801Z,6.33
2017-08-09T19:46:41.812Z,6.87
2017-08-09T19:49:08.235Z,7.63
2017-08-09T19:51:34.500Z,5.63
2017-08-09T19:54:00.801Z,6.00
2017-08-09T19:56:27.246Z,7.40
2017-08-09T19:58:53.659Z,6.70
2017-08-09T20:01:20.070Z,5.47
2017-08-09T20:03:46.521Z,5.87
2017-08-09T20:06:13.032Z,5.93
2017-08-09T20:08:40.033Z,5.20
2017-08-09T20:11:06.466Z,15.27
2017-08-09T20:13:32.762Z,9.30
2017-08-09T20:15:59.186Z,8.17
2017-08-09T20:18:26.330Z,6.20
2017-08-09T20:20:52.693Z,5.70
2017-08-09T20:23:18.992Z,4.80
2017-08-09T20:25:45.419Z,5.23
2017-08-09T20:28:11.694Z,5.50
2017-08-09T20:30:38.131Z,6.67
2017-08-09T20:33:04.580Z,5.40
2017-08-09T20:35:30.819Z,5.17
2017-08-09T20:38:02.992Z,4.40
2017-08-09T20:40:29.459Z,5.30
2017-08-09T20:42:55.784Z,5.70
2017-08-09T20:45:22.131Z,5.07
2017-08-09T20:47:48.670Z,4.50
2017-08-09T20:50:14.962Z,9.67
2017-08-09T20:55:14.537Z,6.57
2017-08-09T20:57:40.918Z,5.47
2017-08-09T21:00:07.368Z,6.10
2017-08-09T21:02:34.584Z,6.40
2017-08-09T21:05:01.883Z,6.90
2017-08-09T21:07:28.464Z,9.33
2017-08-09T21:09:54.868Z,7.20
2017-08-09T21:12:21.147Z,6.50
2017-08-09T21:14:47.429Z,7.20
2017-08-09T21:17:14.222Z,8.87
2017-08-09T21:19:40.532Z,7.83
2017-08-09T21:22:06.814Z,13.17
2017-08-09T21:24:34.525Z,13.93
2017-08-09T21:27:00.824Z,6.57
2017-08-09T21:29:27.154Z,10.40
2017-08-09T21:31:53.592Z,10.93
2017-08-09T21:34:19.874Z,13.00
2017-08-09T21:36:47.507Z,12.43
2017-08-09T21:39:13.971Z,5.70
2017-08-09T21:41:41.096Z,6.60
2017-08-09T21:44:07.492Z,7.03
2017-08-09T21:46:33.943Z,8.30
2017-08-09T21:49:00.203Z,7.73
2017-08-09T21:51:26.509Z,6.10
2017-08-09T21:53:53.733Z,6.87
2017-08-09T21:56:20.006Z,7.10
2017-08-09T21:58:46.266Z,5.70
2017-08-09T22:01:12.881Z,5.13
2017-08-09T22:03:39.257Z,5.53
2017-08-09T22:06:05.593Z,5.87
2017-08-09T22:08:32.252Z,5.70
2017-08-09T22:10:58.606Z,4.30
2017-08-09T22:13:24.906Z,6.73
2017-08-09T22:15:51.370Z,4.67
2017-08-09T22:18:17.628Z,5.13
2017-08-09T22:20:45.034Z,7.20
2017-08-09T22:23:11.821Z,5.07
2017-08-09T22:25:38.804Z,7.03
2017-08-09T22:28:05.178Z,5.10
2017-08-09T22:30:31.663Z,8.27
2017-08-09T22:32:58.015Z,6.43
2017-08-09T22:35:24.405Z,7.40
2017-08-09T22:37:51.753Z,5.83
2017-08-09T22:40:18.841Z,5.33
2017-08-09T22:42:45.126Z,5.80
2017-08-09T22:45:11.514Z,5.60
2017-08-09T22:47:37.919Z,5.67
2017-08-09T22:50:04.246Z,6.30
2017-08-09T22:52:30.630Z,5.60
2017-08-09T22:54:57.021Z,5.20
2017-08-09T22:57:23.313Z,5.17
2017-08-09T22:59:49.837Z,5.30
2017-08-09T23:02:16.322Z,5.07
2017-08-09T23:04:43.014Z,4.97
2017-08-09T23:07:10.488Z,5.43
2017-08-09T23:09:37.261Z,5.57
2017-08-09T23:12:03.559Z,7.50
2017-08-09T23:14:30.732Z,6.83
2017-08-09T23:16:57.079Z,7.50
2017-08-09T23:19:23.412Z,5.93
2017-08-09T23:21:49.946Z,5.80
2017-08-09T23:24:17.293Z,6.47
2017-08-09T23:26:43.613Z,6.63
2017-08-09T23:29:10.449Z,7.20
2017-08-09T23:31:36.830Z,6.10
2017-08-09T23:34:03.112Z,5.70
2017-08-09T23:36:29.642Z,5.80
2017-08-09T23:38:55.965Z,5.93
2017-08-09T23:41:23.172Z,6.20
2017-08-09T23:43:49.558Z,6.70
2017-08-09T23:46:15.896Z,6.53
2017-08-09T23:48:42.205Z,5.60
2017-08-09T23:51:09.642Z,6.20
2017-08-09T23:53:35.891Z,6.17
2017-08-09T23:56:03.903Z,6.13
2017-08-09T23:58:30.703Z,6.83
